Pagrindinis puslapis
METAR-TAF:

METAR-TAF

Oro uostai :

Ängelholm–Helsingborg

Helsingborgas, Švedija

platuma: 56-17-46N, ilguma: 012-50-50E, Aukštis: 21 m

Dabartinis oras

Ataskaita buvo paskelbta 17 minutes, ne 15:50 UTC
Vėjas 18 kt iš Vakarų
Temperatūra 7°C
Drėgmė 76%
Slėgis 1011 hPa
Matomumas 10 km arba daugiau
Išsisklaidę debesys ne aukštis 4000 ft

METAR: ESTA 211550Z 26018KT 9999 SCT040 07/03 Q1011

Laikas: 17:07 (16:07 UTC)

Prognozė

Ataskaita buvo paskelbta 1 valandą ir 56 minutes, ne 14:11 UTC
Prognozė galioja nuo 21 metu 15 UTC su 21 metu 21 UTC
Vėjas 18 kt iš Vakarų
Matomumas 10 km arba daugiau
Su prošvaistėmis ne aukštis 2000 ft
Laikinai
nuo 21 metu 15 UTC su 21 metu 21 UTC
Vėjas 18 kt iš Pietvakarių su gūsio iki 28 kt
Tapsmas
nuo 21 metu 18 UTC su 21 metu 21 UTC
Su prošvaistėmis ne aukštis 1000 ft

TAF: ESTA 211411Z 2115/2121 26018KT 9999 BKN020 TEMPO 2115/2121 23018G28KT BECMG 2118/2121 BKN010

Orai ataskaitas ir orų prognozės (METAR, TAF).

turimą stotys yra geltonos ir raudonos taškus žemėlapyje.

Perkelti pele per norėdami pamatyti stoties vardą.

Tada spustelėkite, norėdami matyti oro stebėjimo ir prognozės.

Norėdami pakeisti žemėlapį: spustelėkite ant žalios mygtukų su juodo kryžiaus žemyn,; žalią mygtuką su brūkšneliu, jei norite nutolinti; arba žalių rodyklių gretimoms žemėlapius.


METAR-TAF: